Portada
METAR-TAF:

METAR-TAF

Aeroports :

Aurenja, França

latitud: 44-08N, longitud: 004-50E, altitud: 60 m

Observació

L'informe es va fer fa 22 minuts, a les 17:00 UTC
Vent 4 kt del Oest/Nord-Oest
Temperatura 20°C
Humitat 64%
Pressió 1018 hPa
Visibilitat 10 km o més
sense núvols per sota de 1500 mi sense presència de cumulonimbus.

METAR: LFMO 191700Z AUTO 30004KT CAVOK 20/13 Q1018 NOSIG

Hora: 19:22 (17:22 UTC)

Pronòstic

L'informe es va fer fa 3 hores i 22 minuts, a les 14:00 UTC
Pronòstic vàlid del 19 a les 15 UTC al 20 a les 15 UTC
Vent 3 kt del Nord-Oest
Visibilitat 10 km o més
sense núvols per sota de 1500 mi sense presència de cumulonimbus.
Temporalment
l' 19 a les 21 UTC al 20 a les 09 UTC
Vent 13 kt del Nord

TAF: LFMO 191400Z 1915/2015 32003KT CAVOK TEMPO 1921/2009 35013KT

Observacions i pronòstics meteorològics de més de 4000 aeroports (METAR i TAF).

Les estacions disponibles són els punts grocs i vermells al mapa.

Posi el ratolí al punt desitjat per veure el nom de l'estació.

Feu clic per veure les observacions i els pronòstics meteorològics.

Per canviar el mapa: feu clic els botons verds amb una creu de color negre per apropar; al botó verd amb un guió per allunyar la imatge; o en les fletxes verdes per a mapes adjacents.


METAR-TAF: